Historyczne dane pomiarowe

Dodano dane terminowe – wersja testowa.

Dane z okresu 1951-2019

Wersja bazy: 1.34 [2019-03-16, lista zmian], aktualizacja planowana na 2019-04-15

Dane meteo z obszaru Polski uzyskane na podstawie danych udostępnionych przez Instytut Meteorologii i Gospodarki Wodnej – Państwowy Instytut Badawczy.

 

Wybierz Datę:    

       

TemperaturaWilgotnośćWiatrCiśnienieOpadyŚniegCzas trwania zjawisk
 Stacja t tx tn tng RH VA  wxwx mslp ppp RRR   cm mm wxwxwxwxwxwxwx
1984-05-15 13.1 17.0 10.0 10.0 81.8- 5.7 2.3---- 0.0------------
1984-05-16 15.0 22.4 6.0 3.0 79.0- 7.7 1.7---- 2.5------------
1984-05-17 17.3 21.5 10.0 9.0 71.8- 5.3 4.0---- 0.0------------
1984-05-18 15.4 21.0 10.5 8.0 63.8- 5.0 2.0---- 0.0------------
1984-05-19 15.2 22.0 6.5 5.0 75.5- 2.0 2.3---- 0.0------------
1984-05-20 17.5 23.5 11.0 8.0 69.0- 2.7 1.3---- 0.0------------
1984-05-21 14.1 21.0 8.5 6.4 85.0- 8.0 2.7---- 0.1------------
1984-05-22 15.1 19.4 11.0 8.8 73.3- 5.7 5.0---- 11.5------------
1984-05-23 13.6 17.0 9.0 7.0 85.5- 7.7 3.7---- 7.1------------
1984-05-24 12.5 17.2 10.0 7.8 76.0- 6.3 3.0---- 0.0------------
1984-05-25 13.9 18.2 11.0 6.0 72.8- 5.0 2.0---- 0.0------------
1984-05-26 12.8 18.0 7.0 6.0 80.0- 6.3 1.7---- 3.0------------
1984-05-27 13.7 20.5 5.0 5.0 77.0- 2.7 4.0---- 0.0------------
1984-05-28 13.8 21.5 9.0 8.4 79.8- 6.7 2.0---- 0.7------------
1984-05-29 13.9 17.5 11.0 11.0 82.5- 6.7 4.3---- 0.0------------
1984-05-30 12.7 16.5 8.5 7.0 89.0- 7.0 2.7---- 3.7------------
1984-05-31 13.9 19.0 8.0 7.5 84.0- 7.3 1.7---- 0.0------------
1984-06-01 14.9 19.8 9.5 9.2 82.0- 7.3 2.0---- 0.0------------
1984-06-02 16.9 23.5 9.0 9.2 74.8- 3.0 1.7---- 0.0------------
1984-06-03 17.1 24.0 8.0 7.0 77.0- 3.3 1.7---- 0.0------------
1984-06-04 17.8 23.4 14.8 13.0 83.3- 5.0 3.7---- 8.2------------
1984-06-05 16.8 20.5 13.0 10.6 73.0- 4.3 6.7---- 0.0------------
1984-06-06 17.6 22.0 11.0 10.6 72.3- 3.7 5.7---- 1.0------------
1984-06-07 14.8 19.0 9.5 8.0 71.8- 8.0 2.0---- 21.3------------
1984-06-08 13.3 18.0 10.0 9.8 79.3- 6.3 2.3---- 1.2------------
1984-06-09 11.4 13.5 10.0 9.5 86.0- 6.7 3.7---- 4.0------------
1984-06-10 12.3 15.4 7.5 5.0 76.5- 7.7 2.3---- 0.2------------
1984-06-11 10.9 15.5 7.2 5.2 76.0- 6.3 5.0---- 1.3------------
1984-06-12 10.3 14.2 5.5 3.0 68.3- 5.0 2.3---- 0.0------------
1984-06-13 10.9 18.0 0.5 -1.0 75.8- 5.0 1.7---- 1.7------------
245.9 ms

 

Źródłem pochodzenia danych jest Instytut Meteorologii i Gospodarki Wodnej – Państwowy Instytut Badawczy. Dane Instytutu Meteorologii i Gospodarki Wodnej – Państwowego Instytutu Badawczego zostały przetworzone.

Dane źródłowe można odnaleźć na stronie https://dane.imgw.pl